Latest Weather Observations for Southern Cross Airport

IDW60801

Issued at 7:35 pm WST Saturday 25 October 2014 (issued every 30 minutes, with the page automatically refreshed every 10 minutes)

About weather observations | Map of weather stations | Latest weather observations for WA | Other Formats
Station Details ID: 012320 Name: SOUTHERN CROSS AIRFIELD Lat: -31.24 Lon: 119.36 Height: 347.4 m
Data from the previous 72 hours. | See also: Recent months at Southern Cross Airport
Date/Time
WST
Temp
°C
App
Temp
°C
Dew
Point
Rel
Hum
%
Delta-T
°C
Wind Press
QNH
hPa
Press
MSL
hPa
Rain
since 9 am
mm
Dir
 
Spd
km/h
Gust
km/h
Spd
kts
Gust
kts
25/07:30pm 21.6 16.5 7.8 41 7.3 SW 24 30 13 16 1017.1 1016.3 0.0
25/07:00pm 23.0 16.5 6.3 34 8.7 SW 30 41 16 22 1016.7 1015.9 0.0
25/06:30pm 24.0 18.3 4.9 29 9.7 SW 24 33 13 18 1016.0 1015.1 0.0
25/06:00pm 24.9 18.8 4.6 27 10.3 WSW 26 35 14 19 1015.6 1014.7 0.0
25/05:30pm 25.7 18.7 4.2 25 10.9 WSW 30 39 16 21 1015.2 1014.3 0.0
25/05:00pm 26.6 20.2 5.0 25 11.2 SW 28 35 15 19 1014.7 1013.8 0.0
25/04:30pm 27.2 21.1 4.9 24 11.6 WSW 26 41 14 22 1014.7 1013.8 0.0
25/04:00pm 27.7 21.2 4.7 23 11.9 W 28 39 15 21 1014.4 1013.6 0.0
25/03:30pm 28.0 21.4 4.3 22 12.2 WSW 28 39 15 21 1014.3 1013.5 0.0
25/03:00pm 27.8 20.7 5.4 24 11.8 W 32 46 17 25 1014.3 1013.5 0.0
25/02:34pm 28.6 21.9 5.5 23 12.2 W 30 54 16 29 1014.2 1013.4 0.0
25/02:30pm 28.4 21.6 5.3 23 12.2 W 30 43 16 23 1014.2 1013.4 0.0
25/02:00pm 28.3 21.0 4.6 22 12.3 W 32 44 17 24 1014.2 1013.4 0.0
25/01:30pm 28.1 21.5 4.4 22 12.3 W 28 39 15 21 1014.2 1013.4 0.0
25/01:00pm 28.6 22.8 6.1 24 12.0 W 26 41 14 22 1014.4 1013.6 0.0
25/12:30pm 28.5 23.2 6.6 25 11.8 W 24 37 13 20 1014.4 1013.6 0.0
25/12:00pm 27.6 22.1 7.5 28 10.9 W 26 39 14 21 1014.5 1013.7 0.0
25/11:30am 28.1 22.7 7.9 28 11.1 W 26 37 14 20 1014.7 1013.8 0.0
25/11:00am 27.1 21.8 7.0 28 10.8 WSW 24 37 13 20 1014.7 1013.8 0.0
25/10:30am 27.1 22.0 7.5 29 10.6 SW 24 33 13 18 1014.8 1013.9 0.0
25/10:00am 25.8 20.4 6.4 29 10.2 W 24 33 13 18 1014.5 1013.7 0.0
25/09:30am 26.2 22.1 7.7 31 10.0 WSW 19 26 10 14 1014.7 1013.8 0.0
25/09:00am 25.4 20.3 6.1 29 10.1 SW 22 32 12 17 1014.5 1013.7 0.0
25/08:30am 24.8 19.5 7.0 32 9.5 SSW 24 32 13 17 1014.4 1013.6 0.0
25/08:00am 23.2 20.5 8.9 40 7.8 S 13 15 7 8 1014.4 1013.6 0.0
25/07:30am 20.6 18.7 8.9 47 6.3 S 9 13 5 7 1014.5 1013.7 0.0
25/07:00am 18.7 16.7 8.7 52 5.3 S 9 13 5 7 1014.2 1013.4 0.0
25/06:30am 16.5 14.7 8.0 57 4.4 SW 7 13 4 7 1014.2 1013.4 0.0
25/06:00am 13.6 11.4 6.0 60 3.7 WSW 7 11 4 6 1014.2 1013.4 0.0
25/05:30am 12.4 11.3 5.1 61 3.4 CALM 0 0 0 0 1013.9 1013.0 0.0
25/05:00am 13.0 10.9 5.7 61 3.5 S 6 7 3 4 1013.7 1012.8 0.0
25/04:30am 12.9 10.1 5.3 60 3.6 SW 9 13 5 7 1013.6 1012.7 0.0
25/04:00am 13.5 11.2 5.7 59 3.7 SW 7 9 4 5 1013.4 1012.5 0.0
25/03:30am 13.0 10.1 4.9 58 3.8 SW 9 11 5 6 1013.5 1012.6 0.0
25/03:00am 13.7 12.7 5.6 58 3.9 CALM 0 6 0 3 1013.0 1012.1 0.0
25/02:30am 14.5 12.2 5.6 55 4.3 E 7 9 4 5 1012.8 1011.9 0.0
25/02:00am 15.8 14.4 5.7 51 4.9 WSW 2 6 1 3 1013.2 1012.3 0.0
25/01:30am 16.6 14.9 5.9 49 5.3 WSW 4 7 2 4 1013.2 1012.3 0.0
25/01:00am 15.4 12.3 5.6 52 4.8 W 11 13 6 7 1013.4 1012.5 0.0
25/12:30am 16.8 15.8 5.7 48 5.5 CALM 0 0 0 0 1013.2 1012.3 0.0
25/12:00am 18.0 16.0 6.2 46 5.9 S 6 7 3 4 1013.5 1012.6 0.0
 
Date/Time
WST
Temp
°C
App
Temp
°C
Dew
Point
Rel
Hum
%
Delta-T
°C
Wind Press
QNH
hPa
Press
MSL
hPa
Rain
since 9 am
mm
Dir
 
Spd
km/h
Gust
km/h
Spd
kts
Gust
kts
24/11:30pm 17.2 15.0 5.5 46 5.8 SSE 6 7 3 4 1013.6 1012.7 0.0
24/11:00pm 20.3 17.7 6.3 40 7.1 ESE 9 13 5 7 1013.9 1013.0 0.0
24/10:30pm 19.8 17.6 5.5 39 7.2 S 6 7 3 4 1014.0 1013.2 0.0
24/10:00pm 21.2 19.0 5.1 35 8.1 S 6 9 3 5 1014.1 1013.3 0.0
24/09:30pm 21.3 18.9 5.2 35 8.1 S 7 9 4 5 1014.3 1013.5 0.0
24/09:00pm 21.7 18.9 5.2 34 8.3 SE 9 11 5 6 1014.2 1013.4 0.0
24/08:30pm 22.4 19.4 5.8 34 8.5 SW 11 13 6 7 1014.0 1013.2 0.0
24/08:00pm 22.0 19.5 5.0 33 8.6 SSE 7 13 4 7 1013.9 1013.0 0.0
24/07:30pm 24.7 22.1 6.0 30 9.7 SSE 9 9 5 5 1013.6 1012.7 0.0
24/07:00pm 25.6 22.9 5.8 28 10.3 E 9 11 5 6 1013.4 1012.5 0.0
24/06:30pm 27.2 25.9 6.0 26 11.2 N 2 6 1 3 1013.2 1012.3 0.0
24/06:00pm 28.5 26.1 5.4 23 12.2 NNW 7 9 4 5 1013.1 1012.2 0.0
24/05:30pm 29.5 27.7 5.6 22 12.7 NW 4 9 2 5 1013.0 1012.1 0.0
24/05:00pm 29.5 25.9 4.9 21 12.9 NW 13 17 7 9 1013.1 1012.2 0.0
24/04:30pm 29.6 25.2 5.0 21 13.0 NW 17 20 9 11 1013.2 1012.3 0.0
24/04:00pm 29.8 25.6 5.8 22 12.8 N 17 28 9 15 1013.1 1012.2 0.0
24/03:30pm 29.3 24.6 6.0 23 12.5 N 20 28 11 15 1013.3 1012.4 0.0
24/03:00pm 29.7 26.0 6.4 23 12.6 NNW 15 26 8 14 1013.7 1012.8 0.0
24/02:30pm 29.0 25.3 6.4 24 12.2 N 15 28 8 15 1014.0 1013.2 0.0
24/02:00pm 28.2 25.9 7.4 27 11.3 N 9 19 5 10 1014.7 1013.8 0.0
24/01:30pm 27.8 23.9 8.6 30 10.7 NE 19 26 10 14 1015.0 1014.1 0.0
24/01:00pm 27.2 24.4 8.6 31 10.3 NW 13 20 7 11 1015.6 1014.7 0.0
24/12:30pm 26.8 23.9 8.3 31 10.2 NW 13 24 7 13 1016.1 1015.2 0.0
24/12:00pm 26.1 23.7 8.6 33 9.6 N 11 17 6 9 1016.3 1015.4 0.0
24/11:30am 25.3 23.1 9.2 36 8.9 N 11 20 6 11 1016.6 1015.8 0.0
24/11:00am 24.9 21.9 9.2 37 8.7 N 15 28 8 15 1016.8 1016.0 0.0
24/10:30am 23.5 20.9 10.6 44 7.2 NNE 15 22 8 12 1017.4 1016.6 0.0
24/10:00am 22.9 20.3 10.7 46 6.8 NE 15 24 8 13 1017.5 1016.7 0.0
24/09:30am 21.9 19.0 11.0 50 6.1 NE 17 24 9 13 1017.8 1016.9 0.0
24/09:00am 21.2 18.4 11.5 54 5.5 NE 17 24 9 13 1018.1 1017.2 0.0
24/08:30am 19.7 17.0 11.7 60 4.5 NE 17 24 9 13 1018.1 1017.2 0.0
24/08:00am 18.7 16.1 12.0 65 3.8 E 17 24 9 13 1018.4 1017.5 0.0
24/07:30am 17.6 15.1 12.3 71 3.0 E 17 22 9 12 1018.5 1017.6 0.0
24/07:00am 16.3 13.7 12.1 76 2.3 E 17 24 9 13 1018.5 1017.6 0.0
24/06:30am 15.3 13.7 11.7 79 2.0 E 11 17 6 9 1018.2 1017.3 0.0
24/06:00am 14.2 13.3 11.4 83 1.5 SE 7 9 4 5 1018.2 1017.3 0.0
24/05:30am 13.3 12.3 11.0 86 1.2 SSE 7 9 4 5 1018.0 1017.1 0.0
24/05:00am 13.5 12.1 10.9 84 1.4 SSE 9 11 5 6 1017.7 1016.8 0.0
24/04:30am 13.9 11.7 10.9 82 1.6 SE 13 17 7 9 1017.4 1016.6 0.0
24/04:00am 14.2 11.3 11.0 81 1.7 SE 17 20 9 11 1017.1 1016.3 0.0
24/03:30am 14.6 12.0 10.8 78 2.0 SE 15 20 8 11 1017.1 1016.3 0.0
24/03:00am 14.5 12.2 10.5 77 2.1 SSE 13 19 7 10 1016.8 1016.0 0.0
24/02:30am 14.8 12.5 10.6 76 2.3 SSE 13 17 7 9 1016.9 1016.1 0.0
24/02:00am 15.3 13.1 10.7 74 2.5 SSE 13 17 7 9 1016.8 1016.0 0.0
24/01:30am 15.7 12.3 10.7 72 2.7 SSE 19 26 10 14 1016.8 1016.0 0.0
24/01:00am 16.0 12.5 10.3 69 3.1 SSE 19 22 10 12 1016.8 1016.0 0.0
24/12:30am 16.4 13.0 9.3 63 3.7 SSE 17 22 9 12 1016.9 1016.1 0.0
24/12:00am 17.0 13.9 8.9 59 4.2 S 15 19 8 10 1016.9 1016.1 0.0
 
Date/Time
WST
Temp
°C
App
Temp
°C
Dew
Point
Rel
Hum
%
Delta-T
°C
Wind Press
QNH
hPa
Press
MSL
hPa
Rain
since 9 am
mm
Dir
 
Spd
km/h
Gust
km/h
Spd
kts
Gust
kts
23/11:30pm 17.3 14.8 8.4 56 4.6 S 11 15 6 8 1016.7 1015.9 0.0
23/11:00pm 18.0 15.0 7.7 51 5.3 SSE 13 15 7 8 1016.7 1015.9 0.0
23/10:30pm 18.4 14.9 7.2 48 5.7 S 15 17 8 9 1016.8 1016.0 0.0
23/10:00pm 18.4 14.9 7.2 48 5.7 S 15 17 8 9 1016.8 1016.0 0.0
23/09:30pm 18.5 15.6 6.7 46 6.0 S 11 13 6 7 1016.8 1016.0 0.0
23/09:00pm 19.4 16.2 6.8 44 6.4 S 13 13 7 7 1016.7 1015.9 0.0
23/08:30pm 19.8 17.4 7.2 44 6.5 SSW 9 11 5 6 1016.7 1015.9 0.0
23/08:00pm 19.6 16.8 7.0 44 6.5 SW 11 13 6 7 1016.5 1015.7 0.0
23/07:30pm 20.9 18.1 6.8 40 7.3 SW 11 13 6 7 1016.2 1015.3 0.0
23/07:00pm 22.0 18.4 6.7 37 7.9 SW 15 20 8 11 1015.8 1014.9 0.0
23/06:30pm 23.0 18.4 6.7 35 8.5 WSW 20 30 11 16 1015.4 1014.5 0.0
23/06:00pm 23.9 19.0 6.7 33 9.0 WSW 22 32 12 17 1015.0 1014.1 0.0
23/05:30pm 24.6 19.1 5.9 30 9.7 WSW 24 35 13 19 1014.5 1013.7 0.0
23/05:00pm 25.4 19.5 5.6 28 10.3 W 26 35 14 19 1014.2 1013.4 0.0
23/04:30pm 25.6 20.2 4.7 26 10.7 WSW 22 33 12 18 1014.1 1013.3 0.0
23/04:00pm 26.2 20.8 4.6 25 11.1 WNW 22 28 12 15 1014.1 1013.3 0.0
23/03:30pm 25.9 20.3 5.5 27 10.6 WSW 24 30 13 16 1014.0 1013.2 0.0
23/03:00pm 26.1 18.9 5.1 26 10.9 WSW 32 39 17 21 1014.0 1013.2 0.0
23/02:30pm 25.8 19.1 5.4 27 10.6 W 30 41 16 22 1014.1 1013.3 0.0
23/02:00pm 26.0 19.8 6.1 28 10.5 W 28 43 15 23 1014.1 1013.3 0.0
23/01:30pm 25.7 19.8 5.8 28 10.4 W 26 39 14 21 1014.2 1013.4 0.0
23/01:00pm 25.0 19.6 6.2 30 9.9 W 24 33 13 18 1014.4 1013.6 0.0
23/12:30pm 24.5 18.1 5.3 29 9.9 W 28 43 15 23 1014.5 1013.7 0.0
23/12:00pm 24.5 19.4 7.6 34 9.1 W 24 37 13 20 1014.9 1014.0 0.0
23/11:30am 23.6 17.7 7.3 35 8.6 W 28 37 15 20 1015.3 1014.4 0.0
23/11:00am 22.8 16.0 7.0 36 8.3 WNW 32 41 17 22 1015.5 1014.6 0.0
23/10:30am 22.9 17.0 7.4 37 8.2 W 28 39 15 21 1015.7 1014.8 0.0
23/10:00am 22.0 17.0 8.2 41 7.4 W 24 35 13 19 1015.9 1015.0 0.0
23/09:30am 20.7 15.7 9.6 49 6.0 W 26 35 14 19 1015.9 1015.0 0.0
23/09:00am 19.9 15.7 9.8 52 5.5 W 22 32 12 17 1015.9 1015.0 0.0
23/08:30am 19.1 15.3 9.9 55 5.0 WSW 20 32 11 17 1015.9 1015.0 0.0
23/08:00am 18.1 13.6 10.0 59 4.4 WNW 24 30 13 16 1015.6 1014.7 0.0
23/07:30am 17.5 14.1 10.4 63 3.9 WNW 19 26 10 14 1015.7 1014.8 0.0
23/07:00am 16.6 13.9 10.5 67 3.3 WNW 15 22 8 12 1015.7 1014.8 0.0
23/06:30am 15.6 13.2 9.9 69 3.0 NW 13 19 7 10 1015.7 1014.8 0.0
23/06:00am 14.8 12.3 9.8 72 2.6 WNW 13 15 7 8 1015.6 1014.7 0.0
23/05:30am 13.5 11.3 9.4 76 2.1 NNW 11 13 6 7 1015.3 1014.4 0.0
23/05:00am 12.9 11.0 9.0 77 2.0 NNW 9 13 5 7 1015.1 1014.2 0.0
23/04:30am 13.5 12.0 9.2 75 2.2 NW 7 9 4 5 1014.7 1013.8 0.0
23/04:00am 13.7 12.1 8.7 72 2.6 W 7 11 4 6 1014.9 1014.0 0.0
23/03:30am 14.4 12.0 8.8 69 2.9 WSW 11 17 6 9 1014.8 1013.9 0.0
23/03:00am 14.5 12.1 8.7 68 3.0 W 11 15 6 8 1014.7 1013.8 0.0
23/02:30am 15.1 12.4 8.8 66 3.3 W 13 17 7 9 1014.7 1013.8 0.0
23/02:00am 15.6 12.1 8.6 63 3.6 W 17 22 9 12 1014.9 1014.0 0.0
23/01:30am 16.2 12.0 8.4 60 4.0 W 20 30 11 16 1014.8 1013.9 0.0
23/01:00am 16.7 13.1 8.4 58 4.3 W 17 19 9 10 1014.8 1013.9 0.0
23/12:30am 17.4 13.7 8.0 54 4.9 W 17 22 9 12 1014.7 1013.8 0.0
23/12:00am 18.2 14.1 7.9 51 5.3 W 19 24 10 13 1014.7 1013.8 0.0
 
Date/Time
WST
Temp
°C
App
Temp
°C
Dew
Point
Rel
Hum
%
Delta-T
°C
Wind Press
QNH
hPa
Press
MSL
hPa
Rain
since 9 am
mm
Dir
 
Spd
km/h
Gust
km/h
Spd
kts
Gust
kts
22/11:30pm 18.7 15.1 8.4 51 5.4 WSW 17 22 9 12 1014.5 1013.7 0.0
22/11:00pm 19.3 15.6 9.5 53 5.3 SW 19 28 10 15 1014.5 1013.7 0.0
22/10:30pm 20.1 15.2 9.9 52 5.6 SW 26 35 14 19 1014.4 1013.6 0.0
22/10:00pm 21.1 16.9 11.2 53 5.6 SW 24 33 13 18 1014.2 1013.4 0.0
22/09:30pm 22.1 17.3 10.3 47 6.5 WSW 26 35 14 19 1014.0 1013.2 0.0
22/09:00pm 23.3 18.6 10.7 45 7.1 W 26 35 14 19 1013.7 1012.8 0.0
22/08:30pm 25.1 19.3 9.4 37 8.7 WSW 30 48 16 26 1013.1 1012.2 0.0
22/08:29pm 25.1 19.3 9.4 37 8.7 WSW 30 48 16 26 1013.1 1012.2 0.0
22/08:00pm 26.3 21.3 9.6 35 9.4 WSW 26 33 14 18 1012.6 1011.7 0.0

Other Formats:

Comma delimited format used in spreadsheet applications
http://www.bom.gov.au/fwo/IDW60801/IDW60801.95634.axf

JavaScript Object Notation format (JSON) in row-major order
http://www.bom.gov.au/fwo/IDW60801/IDW60801.95634.json